terça-feira, 18 de agosto de 2020

Aterragens no Pico com vento sudoeste (vídeo)


No dia de ontem, 17 de agosto de 2020, o Aeroporto da ilha do Pico recebeu alguns voos sob condições atmosféricas que não eram as mais favoráveis à operação aérea.

Em particular, o vento apresentava-se do quadrante sudoeste, com rajadas a chegar aos 37 nós, isto quando chegaram dois voos em menos de uma hora: SP 430, proveniente de Ponta Delgada (São Miguel), e S4 141, proveniente de Lisboa.

METAR LPPI 170830Z 22023G37KT 9999 FEW012 SCT015 BKN050 24/21 Q1012 RMK WIND RWY09 22020G32KT RWY27 23024G36KT
METAR LPPI 170930Z 22023KT 9999 SCT011 SCT014 BKN045 24/21 Q1012 RMK WIND RWY09 22023G36KT RWY27 22024G36KT

De forma a poder partilhar as aterragens destes voos para todos aqueles que não puderam assistir às mesmas in loco, apresenta-se um vídeo relacionado em anexo. De notar ainda que, ao longo do dia em questão, operaram outros três voos no aeroporto do Pico (todos interilhas), os quais também estiveram sob o efeito do vento sudoeste, com rajadas superiores a 30 nós.

Recorde-se que todos horários dos aviões que servem a ilha do Pico de forma regular encontram-se disponíveis no separador "Aviões" deste blog.

Haja saúde!


Sem comentários:

Publicar um comentário

Para evitar perder a ideia do comentário, sugere-se que escreva primeiro o mesmo num editor de texto e depois copie para aqui; assim, se ocorrer algum erro (por vezes não funciona à primeira), tem sempre cópia do seu texto.

Muito obrigado por comentar neste blog! Haja saúde!